Time;durP1;ratioP1;P1;durP2;ratioP2;P2;SDS_P1;SDS_P2;PMS_P1;PMS_P2;Temp;Humidity;BMP_temperature;BMP_pressure;BME280_temperature;BME280_humidity;BME280_pressure;Samples;Min_cycle;Max_cycle;Signal;HPM_P1;HPM_P2
2022/05/18 00:01:40;;;;;;;5.25;3.70;;;;;;;22.44;65.33;99116.25;5091227;28;20195;-64
2022/05/18 00:04:08;;;;;;;5.18;3.63;;;;;;;22.40;65.22;99104.25;5091379;28;20195;-64
2022/05/18 00:06:35;;;;;;;3.20;3.10;;;;;;;22.40;65.53;99111.34;5091514;28;20191;-66
2022/05/18 00:09:02;;;;;;;7.38;3.90;;;;;;;22.39;65.94;99093.78;5091614;28;20668;-64
2022/05/18 00:11:30;;;;;;;4.35;3.67;;;;;;;22.38;65.91;99098.25;5090957;28;20222;-60
2022/05/18 00:13:57;;;;;;;5.32;3.83;;;;;;;22.37;66.06;99101.84;5090867;28;20283;-60
2022/05/18 00:16:26;;;;;;;6.13;4.00;;;;;;;22.27;66.59;99090.38;5089341;28;20551;-59
2022/05/18 00:18:56;;;;;;;5.32;3.90;;;;;;;22.23;66.76;99080.19;5091060;28;20612;-60
2022/05/18 00:21:25;;;;;;;3.45;3.33;;;;;;;22.19;67.06;99071.69;5090614;28;20278;-59
2022/05/18 00:23:52;;;;;;;4.47;3.78;;;;;;;22.15;67.28;99077.34;5090941;28;20226;-59
2022/05/18 00:26:19;;;;;;;3.40;3.20;;;;;;;22.14;67.26;99073.00;5091309;28;20281;-63
2022/05/18 00:28:46;;;;;;;3.92;3.63;;;;;;;21.99;67.88;99068.06;5091149;28;20195;-64
2022/05/18 00:31:17;;;;;;;4.28;3.70;;;;;;;21.99;67.77;99070.69;5090751;28;20717;-58
2022/05/18 00:33:44;;;;;;;4.03;3.63;;;;;;;22.05;67.47;99059.59;5090764;28;20275;-59
2022/05/18 00:36:11;;;;;;;3.60;3.30;;;;;;;22.04;67.79;99065.84;5090421;28;20198;-58
2022/05/18 00:38:39;;;;;;;6.95;3.90;;;;;;;21.98;67.58;99055.81;5090545;28;20297;-59
2022/05/18 00:41:06;;;;;;;3.63;3.10;;;;;;;22.03;67.94;99068.63;5090190;28;20192;-58
2022/05/18 00:43:40;;;;;;;4.10;3.75;;;;;;;22.00;68.20;99060.97;5090236;28;20206;-59
2022/05/18 00:46:13;;;;;;;3.85;3.65;;;;;;;21.98;68.27;99063.72;5090180;28;20306;-59
2022/05/18 00:48:40;;;;;;;4.30;4.00;;;;;;;21.91;68.84;99049.31;5090379;28;20207;-62
2022/05/18 00:51:12;;;;;;;7.55;3.90;;;;;;;21.90;68.89;99049.41;5090165;28;20579;-61
2022/05/18 00:53:44;;;;;;;3.92;3.47;;;;;;;21.89;69.03;99037.22;5090320;28;20195;-60
2022/05/18 00:56:15;;;;;;;4.03;3.78;;;;;;;21.87;69.12;99049.69;5090149;28;20183;-63
2022/05/18 00:58:47;;;;;;;5.50;3.67;;;;;;;21.90;68.93;99044.13;5090217;28;20276;-61
2022/05/18 01:01:14;;;;;;;3.95;3.67;;;;;;;21.90;68.92;99049.41;5089944;28;20206;-62
2022/05/18 01:03:46;;;;;;;3.88;3.67;;;;;;;21.79;68.91;99023.06;5090407;28;20586;-61
2022/05/18 01:06:20;;;;;;;3.45;3.25;;;;;;;21.90;69.22;99052.06;5090153;28;20656;-67
2022/05/18 01:08:54;;;;;;;4.00;3.70;;;;;;;21.90;69.27;99057.34;5090018;28;20217;-62
2022/05/18 01:11:21;;;;;;;3.95;3.75;;;;;;;21.86;69.78;99048.03;5089901;28;20195;-60
2022/05/18 01:13:50;;;;;;;4.10;3.80;;;;;;;21.88;70.00;99054.03;5090214;28;20606;-61
2022/05/18 01:16:17;;;;;;;4.90;4.20;;;;;;;21.89;70.02;99059.19;5089860;28;20286;-66
2022/05/18 01:18:45;;;;;;;4.50;4.18;;;;;;;21.93;70.35;99049.19;5090784;28;20211;-66
2022/05/18 01:21:12;;;;;;;4.05;3.85;;;;;;;21.95;70.13;99048.09;5090616;28;20294;-66
2022/05/18 01:23:49;;;;;;;5.07;3.47;;;;;;;21.97;70.35;99045.31;5091027;28;20220;-66
2022/05/18 01:26:25;;;;;;;3.72;3.53;;;;;;;21.95;70.42;99042.81;5090828;28;20195;-66
2022/05/18 01:28:57;;;;;;;3.90;3.60;;;;;;;21.99;70.39;99044.28;5090317;28;20678;-67
2022/05/18 01:31:43;;;;;;;4.40;4.10;;;;;;;21.95;70.85;99042.81;5089739;28;20612;-63
2022/05/18 01:34:10;;;;;;;4.20;3.90;;;;;;;21.90;71.24;99038.84;5090178;28;20240;-66
2022/05/18 01:36:38;;;;;;;4.20;4.00;;;;;;;21.90;71.52;99036.22;5089984;28;20195;-66
2022/05/18 01:39:07;;;;;;;4.10;3.90;;;;;;;21.85;72.01;99030.50;5089712;28;20203;-66
2022/05/18 01:41:45;;;;;;;3.95;3.67;;;;;;;21.79;72.13;99020.41;5089890;28;20242;-66
2022/05/18 01:44:13;;;;;;;4.20;3.90;;;;;;;21.80;72.41;99024.72;5089473;28;20325;-66
2022/05/18 01:46:40;;;;;;;3.85;3.65;;;;;;;21.77;72.58;99017.09;5089849;28;20200;-65
2022/05/18 01:49:07;;;;;;;3.97;3.67;;;;;;;21.78;72.47;99029.31;5089789;28;20206;-61
2022/05/18 01:51:37;;;;;;;3.88;3.67;;;;;;;21.78;72.60;99021.41;5089789;28;20228;-62
2022/05/18 01:54:05;;;;;;;4.15;3.85;;;;;;;21.77;72.82;99020.56;5089585;28;20199;-66
2022/05/18 01:56:32;;;;;;;4.07;3.78;;;;;;;21.77;72.62;99017.09;5089531;28;20237;-60
2022/05/18 01:58:59;;;;;;;3.80;3.53;;;;;;;21.71;72.98;99016.59;5089873;28;20218;-64
2022/05/18 02:01:28;;;;;;;3.85;3.65;;;;;;;21.65;73.71;99013.66;5089442;28;20214;-66
2022/05/18 02:03:55;;;;;;;4.30;4.00;;;;;;;21.54;74.25;99006.59;5089484;28;20202;-61
2022/05/18 02:06:23;;;;;;;3.83;3.63;;;;;;;21.47;74.91;99008.06;5089350;28;20283;-63
2022/05/18 02:08:50;;;;;;;4.60;4.22;;;;;;;21.40;75.34;98995.47;5089512;28;20222;-63
2022/05/18 02:11:19;;;;;;;4.10;3.80;;;;;;;21.38;75.87;99001.72;5089470;28;20202;-62
2022/05/18 02:13:47;;;;;;;4.10;3.80;;;;;;;21.35;76.19;99001.13;5089658;28;20219;-64
2022/05/18 02:16:14;;;;;;;4.13;3.92;;;;;;;21.38;76.21;99000.88;5090882;28;20199;-66
2022/05/18 02:18:42;;;;;;;4.72;4.40;;;;;;;21.28;77.15;98998.16;5093084;28;20289;-64
2022/05/18 02:21:11;;;;;;;4.38;4.07;;;;;;;21.21;77.61;99004.06;5092917;28;20195;-62
2022/05/18 02:23:39;;;;;;;4.32;3.75;;;;;;;21.15;78.48;99000.06;5092777;28;20276;-60
2022/05/18 02:26:07;;;;;;;4.10;3.90;;;;;;;21.10;78.69;99001.41;5092831;28;20230;-61
2022/05/18 02:28:34;;;;;;;4.90;4.38;;;;;;;21.12;78.77;98996.84;5092983;28;20270;-62
2022/05/18 02:31:01;;;;;;;4.63;3.65;;;;;;;21.04;79.33;99002.72;5092679;28;20199;-61
2022/05/18 02:33:28;;;;;;;4.20;3.80;;;;;;;21.02;79.53;98994.09;5092646;28;20234;-66
2022/05/18 02:35:56;;;;;;;4.50;3.97;;;;;;;20.99;79.73;98999.63;5092739;28;20205;-68
2022/05/18 02:38:23;;;;;;;4.80;4.50;;;;;;;20.98;79.68;99008.50;5092426;28;20282;-68
2022/05/18 02:40:50;;;;;;;4.55;4.10;;;;;;;20.93;80.35;99000.09;5088786;28;20226;-60
2022/05/18 02:43:17;;;;;;;4.38;4.07;;;;;;;20.92;80.65;99014.25;5071526;28;20724;-69
2022/05/18 02:45:44;;;;;;;5.25;4.93;;;;;;;20.89;80.83;99012.69;5071237;28;20250;-60
2022/05/18 02:48:11;;;;;;;4.70;4.30;;;;;;;20.81;81.67;99006.34;5071459;28;20734;-61
2022/05/18 02:50:38;;;;;;;5.03;4.40;;;;;;;20.79;81.45;99022.28;5071616;28;20243;-62
2022/05/18 02:53:06;;;;;;;4.60;4.40;;;;;;;20.78;81.47;99025.88;5071035;28;20224;-62
2022/05/18 02:58:18;;;;;;;4.70;4.40;;;;;;;20.70;81.91;98983.47;5077592;28;20222;-63
2022/05/18 03:00:44;;;;;;;7.20;4.70;;;;;;;20.75;80.96;99007.69;5091077;28;20223;-62
2022/05/18 03:03:12;;;;;;;4.75;4.32;;;;;;;20.78;80.64;99031.16;5090712;28;20214;-63
2022/05/18 03:05:39;;;;;;;4.70;4.10;;;;;;;20.73;80.89;99035.13;5090718;28;20729;-61
2022/05/18 03:08:08;;;;;;;6.30;4.00;;;;;;;20.65;81.22;99031.28;5084390;28;20668;-62
2022/05/18 03:10:36;;;;;;;4.70;4.10;;;;;;;20.66;80.81;99034.75;5092146;28;20613;-62
2022/05/18 03:13:03;;;;;;;5.47;4.40;;;;;;;20.51;81.18;99015.72;5090464;28;20255;-70
2022/05/18 03:15:30;;;;;;;7.68;4.70;;;;;;;20.63;81.52;99040.28;5089934;28;20191;-70
2022/05/18 03:17:57;;;;;;;4.60;4.15;;;;;;;20.65;81.77;99043.66;5090947;28;20295;-71
2022/05/18 03:25:55;;;;;;;4.82;4.53;;;;;;;20.59;82.30;99059.94;5090267;28;20693;-71
2022/05/18 03:28:21;;;;;;;5.15;4.30;;;;;;;20.60;82.34;99057.19;5089236;28;20716;-70
2022/05/18 03:30:48;;;;;;;7.13;4.72;;;;;;;20.59;82.15;99052.03;5090840;28;20678;-62
2022/05/18 03:33:15;;;;;;;4.38;4.07;;;;;;;20.56;81.91;99039.06;5090169;28;20306;-70
2022/05/18 03:35:42;;;;;;;5.00;4.47;;;;;;;20.66;81.49;99055.84;5087941;28;20588;-71
2022/05/18 03:38:10;;;;;;;6.70;4.40;;;;;;;20.64;81.70;99052.53;5089952;28;20187;-71
2022/05/18 03:40:38;;;;;;;6.25;4.95;;;;;;;20.69;81.65;99060.91;5089942;28;20192;-71
2022/05/18 03:43:06;;;;;;;4.63;4.32;;;;;;;20.74;81.48;99064.03;5089842;28;20213;-71
2022/05/18 03:45:34;;;;;;;5.55;4.30;;;;;;;20.85;80.45;99050.84;5089695;28;20672;-71
2022/05/18 03:48:02;;;;;;;12.88;5.00;;;;;;;21.21;78.54;99056.84;5089816;28;20257;-62
2022/05/18 03:50:30;;;;;;;6.32;4.07;;;;;;;22.38;72.50;99061.22;5089672;28;20215;-57
2022/05/18 03:52:57;;;;;;;4.65;4.05;;;;;;;23.75;64.76;99062.47;5090079;28;20219;-66
2022/05/18 03:55:26;;;;;;;4.70;4.40;;;;;;;25.15;58.36;99069.78;5089883;28;20195;-60
2022/05/18 03:57:53;;;;;;;5.60;5.10;;;;;;;26.49;53.29;99072.47;5090857;28;20277;-65
2022/05/18 04:00:21;;;;;;;4.22;3.90;;;;;;;27.41;49.89;99073.47;5090580;28;20199;-64
2022/05/18 04:02:48;;;;;;;4.20;4.00;;;;;;;28.32;47.50;99078.81;5090716;28;20195;-65
2022/05/18 04:05:17;;;;;;;4.85;4.35;;;;;;;28.77;45.64;99077.41;5090083;28;20444;-64
2022/05/18 04:07:44;;;;;;;4.68;3.88;;;;;;;29.35;44.02;99081.56;5090002;28;20206;-64
2022/05/18 04:10:12;;;;;;;4.70;4.45;;;;;;;29.95;42.49;99085.28;5089948;28;20199;-66
2022/05/18 04:12:40;;;;;;;5.32;3.97;;;;;;;29.36;43.27;99094.75;5089699;28;20672;-67
2022/05/18 04:15:08;;;;;;;7.65;4.10;;;;;;;30.09;41.82;99091.72;5090104;28;20200;-68
2022/05/18 04:17:36;;;;;;;10.95;3.70;;;;;;;31.31;39.05;99088.69;5090581;28;20286;-67
2022/05/18 04:20:05;;;;;;;3.97;3.67;;;;;;;32.47;36.48;99090.34;5090728;28;20187;-66
2022/05/18 04:22:33;;;;;;;4.20;3.90;;;;;;;32.50;36.43;99078.38;5090558;28;20187;-68
2022/05/18 04:25:01;;;;;;;4.63;3.72;;;;;;;33.10;34.67;99108.16;5090449;28;20268;-67
2022/05/18 04:27:29;;;;;;;3.72;3.50;;;;;;;32.93;34.89;99098.78;5090684;28;20196;-67
2022/05/18 04:29:58;;;;;;;3.88;3.50;;;;;;;33.26;34.55;99107.03;5090611;28;20199;-67
2022/05/18 04:32:25;;;;;;;7.93;3.05;;;;;;;33.61;33.53;99098.91;5090563;28;20247;-68
2022/05/18 04:34:52;;;;;;;4.53;2.90;;;;;;;34.06;33.26;99108.16;5090307;28;20226;-67
2022/05/18 04:37:19;;;;;;;6.72;3.78;;;;;;;34.68;33.26;99117.72;5090246;28;20290;-67
2022/05/18 04:39:47;;;;;;;5.18;2.90;;;;;;;34.95;31.94;99114.00;5090166;28;20209;-67
2022/05/18 04:42:14;;;;;;;3.38;3.00;;;;;;;35.07;31.13;99114.19;5090167;28;20199;-64
2022/05/18 04:44:41;;;;;;;3.83;3.30;;;;;;;34.85;31.33;99109.06;5090159;28;20614;-62
2022/05/18 04:47:09;;;;;;;5.72;3.38;;;;;;;33.73;33.54;99118.81;5089964;28;20275;-63
2022/05/18 04:49:36;;;;;;;3.28;3.08;;;;;;;34.40;32.33;99118.81;5090218;28;20206;-63
2022/05/18 04:52:03;;;;;;;4.38;2.97;;;;;;;35.05;31.38;99114.41;5089619;28;20580;-64
2022/05/18 04:54:30;;;;;;;5.18;3.10;;;;;;;35.58;30.55;99125.03;5089953;28;20310;-63
2022/05/18 04:56:57;;;;;;;7.85;3.58;;;;;;;34.83;31.31;99129.16;5090344;28;20198;-63
2022/05/18 04:59:24;;;;;;;8.73;3.33;;;;;;;34.44;31.82;99136.19;5090202;28;20278;-63
2022/05/18 05:01:51;;;;;;;4.43;3.40;;;;;;;34.20;32.37;99136.78;5090252;28;20231;-63
2022/05/18 05:04:19;;;;;;;3.67;3.33;;;;;;;34.88;31.52;99137.44;5089777;28;20191;-63
2022/05/18 05:06:46;;;;;;;10.85;4.93;;;;;;;34.91;31.64;99139.72;5089171;28;20203;-63
2022/05/18 05:09:14;;;;;;;12.48;4.40;;;;;;;35.97;29.88;99143.78;5088401;28;20191;-64
2022/05/18 05:11:42;;;;;;;7.32;3.95;;;;;;;35.71;30.27;99143.03;5088129;28;20570;-64
2022/05/18 05:14:09;;;;;;;7.28;3.50;;;;;;;34.90;31.32;99146.16;5088233;28;20214;-64
2022/05/18 05:16:36;;;;;;;6.93;3.80;;;;;;;35.23;31.02;99138.81;5088432;28;20203;-64
2022/05/18 05:19:03;;;;;;;9.63;4.45;;;;;;;35.53;30.13;99149.16;5089698;28;20195;-63
2022/05/18 05:21:32;;;;;;;8.90;3.85;;;;;;;35.07;31.11;99158.19;5089810;28;20282;-63
2022/05/18 05:23:59;;;;;;;5.05;3.55;;;;;;;34.56;31.81;99145.31;5089928;28;20191;-63
2022/05/18 05:26:25;;;;;;;4.75;3.50;;;;;;;34.75;31.33;99164.41;5089870;28;20667;-64
2022/05/18 05:28:52;;;;;;;10.02;4.15;;;;;;;34.85;31.49;99154.91;5089885;28;20593;-63
2022/05/18 05:31:19;;;;;;;11.02;4.43;;;;;;;34.63;31.84;99160.69;5089522;28;20202;-64
2022/05/18 05:33:46;;;;;;;4.03;3.72;;;;;;;34.59;31.70;99165.66;5090194;28;20364;-63
2022/05/18 05:36:13;;;;;;;8.38;4.38;;;;;;;34.80;31.40;99170.03;5089580;28;20199;-64
2022/05/18 05:38:41;;;;;;;12.63;5.13;;;;;;;34.98;31.61;99172.94;5089880;28;20225;-66
2022/05/18 05:41:08;;;;;;;11.55;4.45;;;;;;;35.39;30.80;99166.44;5089728;28;20594;-66
2022/05/18 05:43:36;;;;;;;9.50;4.30;;;;;;;35.22;31.15;99171.41;5089648;28;20293;-67
2022/05/18 05:46:06;;;;;;;9.13;4.53;;;;;;;35.39;30.82;99174.53;5089440;28;20314;-66
2022/05/18 05:48:34;;;;;;;7.20;4.43;;;;;;;35.18;31.21;99167.50;5089096;28;20199;-68
2022/05/18 05:51:02;;;;;;;12.73;4.75;;;;;;;34.15;32.14;99176.97;5091349;28;20200;-67
2022/05/18 05:53:30;;;;;;;10.23;4.07;;;;;;;35.22;30.79;99158.75;5093580;28;20306;-69
2022/05/18 05:55:58;;;;;;;6.68;4.40;;;;;;;36.09;30.16;99175.50;5093657;28;20252;-67
2022/05/18 05:58:26;;;;;;;6.95;4.00;;;;;;;36.17;30.09;99183.34;5093200;28;20273;-67
2022/05/18 06:00:53;;;;;;;8.57;4.18;;;;;;;35.66;30.56;99173.41;5093602;28;20667;-67
2022/05/18 06:03:20;;;;;;;5.57;4.28;;;;;;;34.80;31.86;99181.66;5093373;28;20261;-67
2022/05/18 06:05:47;;;;;;;7.97;4.15;;;;;;;33.88;33.08;99176.88;5093453;28;20627;-67
2022/05/18 06:08:14;;;;;;;5.40;5.00;;;;;;;32.82;34.20;99185.34;5093032;28;20202;-67
2022/05/18 06:10:41;;;;;;;14.52;4.60;;;;;;;32.18;35.36;99177.25;5093155;28;20198;-67
2022/05/18 06:13:12;;;;;;;7.63;5.10;;;;;;;31.92;35.81;99177.78;5093225;28;20262;-67
2022/05/18 06:15:40;;;;;;;9.02;5.40;;;;;;;32.42;35.22;99179.56;5093163;28;20286;-67
2022/05/18 06:18:07;;;;;;;8.48;5.25;;;;;;;32.89;34.23;99158.50;5091954;28;20194;-64
2022/05/18 06:20:35;;;;;;;9.30;4.93;;;;;;;33.86;32.83;99170.06;5092497;28;20198;-67
2022/05/18 06:23:04;;;;;;;8.02;4.65;;;;;;;33.99;32.69;99182.72;5091641;28;20207;-66
2022/05/18 06:25:31;;;;;;;7.40;5.00;;;;;;;32.58;34.55;99169.59;5091962;28;20207;-68
2022/05/18 06:27:58;;;;;;;6.28;4.72;;;;;;;31.34;36.73;99176.81;5092006;28;20290;-67
2022/05/18 06:30:27;;;;;;;10.23;5.13;;;;;;;29.93;39.32;99156.00;5091580;28;20274;-64
2022/05/18 06:32:54;;;;;;;7.63;5.05;;;;;;;29.38;41.07;99177.50;5091439;28;20683;-63
2022/05/18 06:35:21;;;;;;;15.27;5.00;;;;;;;28.99;40.85;99180.94;5091420;28;20278;-64
2022/05/18 06:37:49;;;;;;;21.58;5.25;;;;;;;29.77;40.14;99183.72;5091200;28;20194;-62
2022/05/18 06:40:18;;;;;;;12.52;4.78;;;;;;;29.95;39.34;99186.13;5090857;28;20208;-63
2022/05/18 06:42:45;;;;;;;9.68;4.82;;;;;;;29.47;40.56;99193.34;5091625;28;20203;-64
2022/05/18 06:45:13;;;;;;;9.23;4.70;;;;;;;29.29;41.48;99178.50;5074300;28;20314;-63
2022/05/18 06:47:43;;;;;;;6.10;4.32;;;;;;;29.97;40.50;99173.44;5086619;28;20229;-63
2022/05/18 06:50:11;;;;;;;6.00;4.57;;;;;;;30.07;40.02;99192.78;5090372;28;20223;-62
2022/05/18 06:52:38;;;;;;;4.88;4.35;;;;;;;30.41;39.58;99203.09;5091594;28;20310;-63
2022/05/18 06:55:05;;;;;;;5.68;4.22;;;;;;;30.30;39.96;99185.59;5091640;28;20710;-64
2022/05/18 06:57:32;;;;;;;10.80;5.13;;;;;;;29.63;41.11;99186.28;5091531;28;20199;-63
2022/05/18 07:00:04;;;;;;;5.18;4.85;;;;;;;28.82;42.42;99195.28;5091501;28;20199;-63
2022/05/18 07:02:31;;;;;;;8.70;4.97;;;;;;;28.32;43.78;99190.09;5091032;28;20260;-63
2022/05/18 07:05:00;;;;;;;5.78;5.00;;;;;;;27.50;46.28;99188.97;5091271;28;20195;-63
2022/05/18 07:07:27;;;;;;;6.00;5.03;;;;;;;27.15;47.97;99197.94;5091122;28;20196;-64
2022/05/18 07:09:54;;;;;;;5.82;5.30;;;;;;;26.64;49.67;99188.88;5091220;28;20203;-64
2022/05/18 07:12:21;;;;;;;5.75;4.68;;;;;;;26.41;49.84;99194.84;5091028;28;20194;-64
2022/05/18 07:14:48;;;;;;;6.32;5.72;;;;;;;26.11;50.26;99198.66;5091433;28;20269;-64
2022/05/18 07:17:15;;;;;;;5.47;4.95;;;;;;;25.97;50.87;99206.16;5091015;28;20692;-63
2022/05/18 07:19:42;;;;;;;6.03;5.38;;;;;;;25.62;52.12;99188.28;5090922;28;20710;-62
2022/05/18 07:22:12;;;;;;;5.95;5.00;;;;;;;25.51;52.96;99196.44;5080376;28;20218;-63
2022/05/18 07:24:39;;;;;;;6.03;5.35;;;;;;;25.32;53.88;99204.47;5089549;28;20609;-64
2022/05/18 07:27:06;;;;;;;6.28;5.60;;;;;;;25.25;54.57;99206.91;5089285;28;20229;-63
2022/05/18 07:29:34;;;;;;;6.10;5.60;;;;;;;25.37;54.42;99209.38;5087141;28;20650;-65
2022/05/18 07:32:13;;;;;;;7.03;5.35;;;;;;;25.33;54.15;99206.16;5089607;28;20688;-63
2022/05/18 07:34:41;;;;;;;9.27;5.70;;;;;;;25.14;54.83;99212.38;5089987;28;20668;-64
2022/05/18 07:37:10;;;;;;;6.13;5.57;;;;;;;25.12;55.84;99222.31;5090120;28;20305;-65
2022/05/18 07:39:38;;;;;;;6.75;5.82;;;;;;;25.24;55.90;99217.66;5090800;28;20537;-63
2022/05/18 07:42:06;;;;;;;6.47;6.07;;;;;;;25.25;56.68;99222.84;5090275;28;20219;-62
2022/05/18 07:44:35;;;;;;;8.80;5.70;;;;;;;25.30;56.60;99225.88;5091338;28;20610;-66
2022/05/18 07:47:05;;;;;;;11.70;6.10;;;;;;;25.32;57.75;99231.88;5091601;28;20647;-67
2022/05/18 07:49:35;;;;;;;8.73;6.03;;;;;;;25.61;55.21;99242.47;5091480;28;20561;-66
2022/05/18 07:52:02;;;;;;;6.80;6.30;;;;;;;25.98;53.46;99231.75;5091340;28;20286;-65
2022/05/18 07:54:30;;;;;;;8.00;7.25;;;;;;;26.21;52.78;99223.38;5091146;28;20270;-65
2022/05/18 07:56:57;;;;;;;8.27;6.90;;;;;;;26.46;52.10;99241.28;5091050;28;20187;-66
2022/05/18 07:59:24;;;;;;;6.32;5.78;;;;;;;26.56;51.85;99246.53;5090939;28;20591;-66
2022/05/18 08:01:51;;;;;;;8.02;6.63;;;;;;;26.53;52.09;99247.66;5090754;28;20202;-64
2022/05/18 08:04:19;;;;;;;8.02;5.93;;;;;;;26.49;51.79;99251.63;5091048;28;20191;-66
2022/05/18 08:06:46;;;;;;;12.27;6.20;;;;;;;26.43;51.98;99252.22;5090996;28;20241;-66
2022/05/18 08:09:13;;;;;;;6.20;5.70;;;;;;;26.48;52.76;99249.97;5090851;28;20223;-65
2022/05/18 08:17:10;;;;;;;6.80;6.28;;;;;;;27.17;51.17;99257.22;5090729;28;20328;-64
2022/05/18 08:19:37;;;;;;;7.10;6.20;;;;;;;28.51;47.64;99259.19;5090757;28;20278;-65
2022/05/18 08:22:05;;;;;;;8.18;5.35;;;;;;;29.10;45.42;99254.56;5090683;28;20227;-65
2022/05/18 08:24:32;;;;;;;5.63;5.10;;;;;;;29.56;43.79;99266.38;5081469;28;20201;-66
2022/05/18 08:27:00;;;;;;;6.07;5.47;;;;;;;29.60;44.21;99263.19;5070333;28;20200;-67
2022/05/18 08:29:27;;;;;;;9.77;6.03;;;;;;;29.69;44.18;99279.19;5070436;28;20196;-65
2022/05/18 08:31:54;;;;;;;7.53;5.57;;;;;;;29.46;44.73;99285.28;5070395;28;20202;-67
2022/05/18 08:34:20;;;;;;;8.05;6.38;;;;;;;28.97;45.60;99286.31;5070054;28;20223;-65
2022/05/18 08:36:49;;;;;;;7.68;5.97;;;;;;;28.58;47.15;99289.56;5070187;28;20199;-68
2022/05/18 08:39:15;;;;;;;7.15;6.65;;;;;;;27.84;48.96;99298.31;5070129;28;20218;-68
2022/05/18 08:41:45;;;;;;;7.85;6.40;;;;;;;27.27;50.96;99302.44;5070392;28;20196;-66
2022/05/18 08:44:27;;;;;;;15.43;6.40;;;;;;;26.84;54.66;99301.38;5069976;28;20223;-66
2022/05/18 08:47:08;;;;;;;12.50;7.15;;;;;;;26.30;57.57;99304.97;5070097;28;20231;-63
2022/05/18 08:49:41;;;;;;;7.13;6.53;;;;;;;25.86;61.12;99302.09;5070224;28;20207;-63
2022/05/18 08:52:28;;;;;;;12.23;7.70;;;;;;;25.51;63.86;99292.09;5070253;28;20207;-64
2022/05/18 08:55:08;;;;;;;7.28;6.88;;;;;;;25.28;66.52;99293.44;5070090;28;20226;-65
2022/05/18 08:57:41;;;;;;;18.52;8.57;;;;;;;25.08;71.46;99292.59;5069870;28;20206;-61
2022/05/18 09:00:16;;;;;;;9.60;8.35;;;;;;;24.78;74.98;99290.09;5070072;28;20204;-62
2022/05/18 09:02:45;;;;;;;8.70;8.00;;;;;;;24.43;78.63;99298.56;5069928;28;20282;-61
2022/05/18 09:05:15;;;;;;;7.90;7.15;;;;;;;24.32;79.26;99298.69;5069898;28;20664;-62
2022/05/18 09:07:46;;;;;;;8.18;7.53;;;;;;;23.99;83.30;99302.47;5069811;28;20202;-63
2022/05/18 09:10:24;;;;;;;8.27;7.78;;;;;;;23.81;85.69;99303.13;5069643;28;20206;-61
2022/05/18 09:12:52;;;;;;;9.88;9.18;;;;;;;23.40;89.94;99305.78;5070326;28;20644;-62
2022/05/18 09:15:25;;;;;;;9.82;9.00;;;;;;;23.38;92.97;99300.59;5069789;28;20751;-62
2022/05/18 09:17:56;;;;;;;10.23;9.52;;;;;;;23.21;94.26;99305.66;5069814;28;20228;-64
2022/05/18 09:20:26;;;;;;;10.05;9.27;;;;;;;23.14;96.31;99295.56;5069500;28;20206;-62
2022/05/18 09:23:13;;;;;;;11.00;10.15;;;;;;;22.74;100.00;99274.22;5070146;28;20699;-63
2022/05/18 09:25:56;;;;;;;11.23;10.35;;;;;;;22.83;100.00;99303.56;5070827;28;20206;-62
2022/05/18 09:28:42;;;;;;;12.05;10.27;;;;;;;22.66;100.00;99300.47;5080954;28;20300;-62
2022/05/18 09:31:22;;;;;;;15.48;12.88;;;;;;;22.47;100.00;99305.56;5093110;28;20214;-62
2022/05/18 09:34:16;;;;;;;11.18;10.15;;;;;;;22.42;100.00;99311.25;5093520;28;20286;-61
2022/05/18 09:36:57;;;;;;;10.65;9.45;;;;;;;22.25;100.00;99311.75;5093347;28;20204;-61
2022/05/18 09:39:30;;;;;;;8.65;7.75;;;;;;;22.11;100.00;99300.59;5093749;28;20289;-61
2022/05/18 09:41:59;;;;;;;7.85;7.07;;;;;;;22.05;100.00;99310.69;5093910;28;20238;-62
2022/05/18 09:44:36;;;;;;;7.68;7.05;;;;;;;21.98;100.00;99306.88;5093853;28;20276;-61
2022/05/18 09:47:05;;;;;;;6.75;6.25;;;;;;;21.91;100.00;99304.78;5093817;28;20205;-62
2022/05/18 09:49:37;;;;;;;5.63;5.13;;;;;;;21.86;100.00;99301.66;5093663;28;20690;-60
2022/05/18 09:52:06;;;;;;;5.35;4.97;;;;;;;21.83;100.00;99301.91;5093551;28;20201;-60
2022/05/18 09:54:35;;;;;;;5.38;5.07;;;;;;;21.80;100.00;99297.69;5093238;28;20215;-60
2022/05/18 09:57:07;;;;;;;5.38;4.97;;;;;;;21.79;99.46;99295.16;5092942;28;20202;-59
2022/05/18 09:59:38;;;;;;;5.38;5.07;;;;;;;21.75;98.13;99305.16;5090171;28;20257;-60
2022/05/18 10:07:48;;;;;;;4.70;4.30;;;;;;;21.82;96.56;99289.66;5093663;28;20193;-60
2022/05/18 10:10:21;;;;;;;5.35;4.90;;;;;;;21.91;95.27;99291.56;5093022;28;20199;-60
2022/05/18 10:12:59;;;;;;;5.65;5.15;;;;;;;21.96;94.08;99277.03;5093034;28;20687;-60
2022/05/18 10:15:33;;;;;;;4.70;4.40;;;;;;;22.12;91.64;99292.56;5091911;28;20215;-60
2022/05/18 10:18:13;;;;;;;5.22;4.10;;;;;;;22.18;89.05;99284.13;5092975;28;20190;-59
2022/05/18 10:20:41;;;;;;;5.15;4.28;;;;;;;22.22;88.09;99282.94;5075727;28;20207;-59
2022/05/18 10:23:30;;;;;;;4.40;4.20;;;;;;;22.28;86.91;99282.41;5092898;28;20568;-59
2022/05/18 10:25:57;;;;;;;4.82;4.30;;;;;;;22.42;85.57;99289.25;5092948;28;20283;-61
2022/05/18 10:28:27;;;;;;;5.13;4.80;;;;;;;22.57;83.30;99281.88;5092666;28;20278;-62
2022/05/18 10:30:57;;;;;;;5.13;4.75;;;;;;;22.75;82.95;99293.59;5093544;28;20194;-61
2022/05/18 10:33:32;;;;;;;6.28;4.78;;;;;;;22.88;81.34;99302.22;5093300;28;20202;-60
2022/05/18 10:36:09;;;;;;;5.35;4.95;;;;;;;23.01;78.82;99297.59;5092319;28;20218;-59
2022/05/18 10:38:39;;;;;;;5.03;4.72;;;;;;;23.14;78.82;99294.72;5093364;28;20195;-61
2022/05/18 10:41:15;;;;;;;4.57;4.13;;;;;;;23.29;74.95;99300.56;5093585;28;20352;-61
2022/05/18 10:43:45;;;;;;;5.32;4.82;;;;;;;23.53;74.75;99298.50;5093214;28;20191;-61
2022/05/18 10:46:17;;;;;;;4.68;4.32;;;;;;;23.72;72.56;99303.06;5093082;28;20207;-61
2022/05/18 10:48:55;;;;;;;4.82;4.43;;;;;;;23.85;71.04;99301.03;5093268;28;20191;-61
2022/05/18 10:51:32;;;;;;;5.93;5.38;;;;;;;23.99;71.63;99299.81;5092501;28;20586;-58
2022/05/18 10:54:10;;;;;;;3.97;3.78;;;;;;;24.00;69.20;99312.09;5091598;28;20206;-58
2022/05/18 10:56:38;;;;;;;5.63;3.75;;;;;;;23.96;69.25;99306.22;5091431;28;20206;-58
2022/05/18 10:59:37;;;;;;;4.93;4.43;;;;;;;23.95;69.09;99303.69;5091385;28;20248;-59
2022/05/18 11:02:10;;;;;;;7.05;5.30;;;;;;;23.97;67.57;99304.41;5092252;28;20282;-59
2022/05/18 11:04:50;;;;;;;7.40;5.20;;;;;;;24.04;67.08;99302.94;5092616;28;20202;-58
2022/05/18 11:07:20;;;;;;;6.35;5.78;;;;;;;24.18;66.84;99302.53;5092318;28;20195;-59
2022/05/18 11:09:47;;;;;;;6.60;5.97;;;;;;;24.15;67.11;99310.78;5092267;28;20195;-58
2022/05/18 11:12:24;;;;;;;8.35;7.50;;;;;;;24.16;66.81;99302.66;5092079;28;20199;-58
2022/05/18 11:14:59;;;;;;;8.07;6.35;;;;;;;24.23;68.14;99308.31;5091990;28;20718;-58
2022/05/18 11:17:38;;;;;;;11.70;8.40;;;;;;;24.30;66.50;99304.13;5091783;28;20203;-58
2022/05/18 11:20:20;;;;;;;4.70;4.40;;;;;;;24.31;65.34;99297.00;5092149;28;20199;-59
2022/05/18 11:22:56;;;;;;;6.07;5.68;;;;;;;24.38;66.35;99298.16;5092051;28;20205;-58
2022/05/18 11:25:34;;;;;;;6.43;5.72;;;;;;;24.38;66.04;99306.94;5091754;28;20195;-59
2022/05/18 11:28:12;;;;;;;5.60;5.10;;;;;;;24.67;64.66;99306.16;5091795;28;20191;-59
2022/05/18 11:30:43;;;;;;;7.15;6.63;;;;;;;24.74;63.43;99299.28;5091723;28;20199;-59
2022/05/18 11:33:20;;;;;;;5.75;5.25;;;;;;;24.74;61.87;99304.59;5091587;28;20199;-58
2022/05/18 11:35:59;;;;;;;9.77;6.32;;;;;;;25.07;62.42;99308.69;5091879;28;20215;-58
2022/05/18 11:39:02;;;;;;;10.98;6.72;;;;;;;24.98;62.41;99302.41;5091463;28;20199;-59
2022/05/18 11:41:43;;;;;;;8.43;6.13;;;;;;;25.05;62.82;99306.19;5091598;28;20590;-59
2022/05/18 11:44:16;;;;;;;6.45;5.85;;;;;;;25.13;61.73;99308.97;5091810;28;20242;-61
2022/05/18 11:47:05;;;;;;;10.07;9.18;;;;;;;25.21;61.42;99314.41;5092378;28;20631;-60
2022/05/18 11:49:41;;;;;;;6.50;6.10;;;;;;;25.39;60.77;99319.00;5090847;28;20207;-61
2022/05/18 11:52:30;;;;;;;4.93;4.63;;;;;;;25.46;59.54;99325.41;5091912;28;20191;-61
2022/05/18 11:55:11;;;;;;;5.28;4.90;;;;;;;25.26;60.30;99330.78;5091636;28;20249;-61
2022/05/18 11:57:48;;;;;;;5.00;4.72;;;;;;;25.03;61.15;99329.38;5091666;28;20198;-61
2022/05/18 12:00:34;;;;;;;6.43;4.75;;;;;;;24.98;61.23;99336.94;5091445;28;20187;-61
2022/05/18 12:03:25;;;;;;;5.95;5.32;;;;;;;25.11;60.90;99348.09;5072582;28;20195;-58
2022/05/18 12:06:17;;;;;;;5.50;5.10;;;;;;;25.22;60.14;99355.94;5071085;28;20586;-58